createdAt,value
2018-03-31T00:00:28.489Z,12.02
2018-03-31T00:01:08.994Z,11.98
2018-03-31T00:01:49.434Z,12.01
2018-03-31T00:02:29.974Z,11.85
2018-03-31T00:03:10.447Z,11.86
2018-03-31T00:03:50.937Z,11.79
2018-03-31T00:04:31.432Z,11.9
2018-03-31T00:05:11.977Z,11.9
2018-03-31T00:05:52.681Z,12.01
2018-03-31T00:06:33.171Z,11.96
2018-03-31T00:07:13.649Z,11.98
2018-03-31T00:07:54.128Z,11.98
2018-03-31T00:08:34.584Z,11.96
2018-03-31T00:09:15.076Z,11.82
2018-03-31T00:09:55.569Z,11.82
2018-03-31T00:10:36.028Z,11.95
2018-03-31T00:11:16.566Z,11.94
2018-03-31T00:11:57.014Z,11.95
2018-03-31T00:12:37.522Z,11.78
2018-03-31T00:13:18.019Z,11.85
2018-03-31T00:13:58.487Z,11.95
2018-03-31T00:14:38.984Z,11.94
2018-03-31T00:15:19.444Z,12.04
2018-03-31T00:15:59.971Z,11.98
2018-03-31T00:16:40.407Z,11.9
2018-03-31T00:17:20.920Z,11.88
2018-03-31T00:18:01.387Z,11.88
2018-03-31T00:18:41.923Z,11.96
2018-03-31T00:19:22.394Z,12.02
2018-03-31T00:20:02.852Z,11.79
2018-03-31T00:20:43.360Z,11.82
2018-03-31T00:21:23.845Z,11.8
2018-03-31T00:22:04.308Z,11.69
2018-03-31T00:22:44.817Z,11.62
2018-03-31T00:23:25.277Z,11.78
2018-03-31T00:24:05.828Z,11.85
2018-03-31T00:24:46.284Z,11.83
2018-03-31T00:25:26.808Z,11.85
2018-03-31T00:26:07.218Z,11.86
2018-03-31T00:26:47.757Z,11.8
2018-03-31T00:27:28.217Z,11.73
2018-03-31T00:28:08.744Z,11.65
2018-03-31T00:28:49.188Z,11.72
2018-03-31T00:29:29.669Z,11.62
2018-03-31T00:30:10.187Z,11.62
2018-03-31T00:30:50.646Z,11.58
2018-03-31T00:31:31.278Z,11.67
2018-03-31T00:32:11.747Z,11.7
2018-03-31T00:32:52.224Z,11.7
2018-03-31T00:33:32.792Z,11.83
2018-03-31T00:34:13.213Z,11.78
2018-03-31T00:34:53.667Z,11.75
2018-03-31T00:35:34.156Z,11.65
2018-03-31T00:36:14.707Z,11.76
2018-03-31T00:36:55.182Z,11.75
2018-03-31T00:37:35.654Z,11.86
2018-03-31T00:38:16.378Z,11.83
2018-03-31T00:38:56.964Z,11.72
2018-03-31T00:39:37.387Z,11.8
2018-03-31T00:40:17.891Z,11.75
2018-03-31T00:40:58.389Z,11.94
2018-03-31T00:41:38.847Z,11.96
2018-03-31T00:42:19.340Z,11.95
2018-03-31T00:42:59.860Z,11.88
2018-03-31T00:43:40.323Z,11.91
2018-03-31T00:44:20.841Z,11.98
2018-03-31T00:45:01.280Z,11.83
2018-03-31T00:45:42.008Z,11.98
2018-03-31T00:46:22.539Z,11.9
2018-03-31T00:47:03.054Z,11.96
2018-03-31T00:47:43.536Z,11.95
2018-03-31T00:48:24.001Z,11.91
2018-03-31T00:49:04.498Z,11.91
2018-03-31T00:49:45.000Z,11.73
2018-03-31T00:50:25.513Z,11.8
2018-03-31T00:51:05.971Z,11.73
2018-03-31T00:51:46.425Z,11.83
2018-03-31T00:52:27.031Z,11.72
2018-03-31T00:53:07.743Z,11.69
2018-03-31T00:53:48.294Z,11.73
2018-03-31T00:54:28.791Z,11.67
2018-03-31T00:55:09.294Z,11.64
2018-03-31T00:55:49.758Z,11.65
2018-03-31T00:56:30.282Z,11.6
2018-03-31T00:57:10.732Z,11.58
2018-03-31T00:57:51.180Z,11.52
2018-03-31T00:58:31.657Z,11.55
2018-03-31T00:59:12.152Z,11.52
2018-03-31T00:59:52.673Z,11.54
2018-03-31T01:00:33.189Z,11.57
2018-03-31T01:01:13.679Z,11.58
2018-03-31T01:01:54.125Z,11.55
2018-03-31T01:02:34.576Z,11.6
2018-03-31T01:03:15.102Z,11.55
2018-03-31T01:03:55.569Z,11.6
2018-03-31T01:04:36.050Z,11.46
2018-03-31T01:05:16.592Z,11.47
2018-03-31T01:05:56.995Z,11.54
2018-03-31T01:06:37.515Z,11.55
2018-03-31T01:07:18.069Z,11.58
2018-03-31T01:07:58.597Z,11.62
2018-03-31T01:08:39.004Z,11.6
2018-03-31T01:09:19.507Z,11.57
2018-03-31T01:10:00.036Z,11.58
2018-03-31T01:10:40.504Z,11.54
2018-03-31T01:11:20.976Z,11.49
2018-03-31T01:12:01.432Z,11.6
2018-03-31T01:12:41.961Z,11.7
2018-03-31T01:13:22.408Z,11.62
2018-03-31T01:14:02.903Z,11.67
2018-03-31T01:14:43.410Z,11.69
2018-03-31T01:15:23.932Z,11.65
2018-03-31T01:16:04.415Z,11.67
2018-03-31T01:16:44.948Z,11.65
2018-03-31T01:17:25.348Z,11.8
2018-03-31T01:18:05.864Z,11.83
2018-03-31T01:18:46.368Z,11.73
2018-03-31T01:19:26.857Z,11.7
2018-03-31T01:20:07.307Z,11.62
2018-03-31T01:20:47.826Z,11.61
2018-03-31T01:21:28.300Z,11.55
2018-03-31T01:22:08.759Z,11.7
2018-03-31T01:22:49.260Z,11.76
2018-03-31T01:23:29.729Z,11.75
2018-03-31T01:24:10.206Z,11.7
2018-03-31T01:24:50.747Z,11.69
2018-03-31T01:25:31.212Z,11.67
2018-03-31T01:26:11.712Z,11.54
2018-03-31T01:26:52.168Z,11.39
2018-03-31T01:27:32.867Z,11.46
2018-03-31T01:28:13.400Z,11.57
2018-03-31T01:28:53.865Z,11.49
2018-03-31T01:29:34.324Z,11.58
2018-03-31T01:30:14.817Z,11.64
2018-03-31T01:30:55.300Z,11.73
2018-03-31T01:31:35.800Z,11.65
2018-03-31T01:32:16.287Z,11.7
2018-03-31T01:32:56.757Z,11.65
2018-03-31T01:33:37.280Z,11.72
2018-03-31T01:34:17.756Z,11.67
2018-03-31T01:34:58.228Z,11.52
2018-03-31T01:35:38.740Z,11.54
2018-03-31T01:36:19.200Z,11.55
2018-03-31T01:36:59.676Z,11.46
2018-03-31T01:37:40.142Z,11.58
2018-03-31T01:38:20.588Z,11.55
2018-03-31T01:39:01.082Z,11.55
2018-03-31T01:39:41.578Z,11.51
2018-03-31T01:40:22.073Z,11.6
2018-03-31T01:41:02.634Z,11.6
2018-03-31T01:41:43.101Z,11.52
2018-03-31T01:42:23.577Z,11.44
2018-03-31T01:43:04.041Z,11.51
2018-03-31T01:43:44.535Z,11.62
2018-03-31T01:44:24.978Z,11.54
2018-03-31T01:45:05.480Z,11.51
2018-03-31T01:45:45.926Z,11.65
2018-03-31T01:46:26.369Z,11.49
2018-03-31T01:47:06.913Z,11.54
2018-03-31T01:47:47.393Z,11.52
2018-03-31T01:48:28.090Z,11.64
2018-03-31T01:49:08.667Z,11.61
2018-03-31T01:49:49.114Z,11.55
2018-03-31T01:50:29.620Z,11.6
2018-03-31T01:51:10.120Z,11.76
2018-03-31T01:51:50.590Z,11.73
2018-03-31T01:52:31.109Z,11.57
2018-03-31T01:53:11.533Z,11.73
2018-03-31T01:53:52.005Z,11.67
2018-03-31T01:54:32.514Z,11.72
2018-03-31T01:55:12.979Z,11.7
2018-03-31T01:55:53.638Z,11.76
2018-03-31T01:56:33.917Z,11.76
2018-03-31T01:57:14.610Z,11.69
2018-03-31T01:57:55.158Z,11.7
2018-03-31T01:58:35.586Z,11.6
2018-03-31T01:59:16.052Z,11.57
2018-03-31T01:59:56.564Z,11.65
2018-03-31T02:00:37.021Z,11.6
2018-03-31T02:01:17.502Z,11.61
2018-03-31T02:01:57.994Z,11.69
2018-03-31T02:02:38.499Z,11.55
2018-03-31T02:03:18.945Z,11.64
2018-03-31T02:03:59.428Z,11.64
2018-03-31T02:04:39.925Z,11.58
2018-03-31T02:05:20.386Z,11.61
2018-03-31T02:06:00.884Z,11.61
2018-03-31T02:06:41.386Z,11.64
2018-03-31T02:07:21.872Z,11.7
2018-03-31T02:08:02.352Z,11.6
2018-03-31T02:08:42.898Z,11.73
2018-03-31T02:09:23.356Z,11.7
2018-03-31T02:10:03.830Z,11.64
2018-03-31T02:10:44.322Z,11.6
2018-03-31T02:11:24.805Z,11.67
2018-03-31T02:12:05.335Z,11.76
2018-03-31T02:12:45.864Z,11.8
2018-03-31T02:13:26.317Z,11.82
2018-03-31T02:14:06.838Z,11.82
2018-03-31T02:14:47.322Z,11.83
2018-03-31T02:15:27.830Z,11.86
2018-03-31T02:16:08.329Z,11.86
2018-03-31T02:16:48.855Z,11.8
2018-03-31T02:17:29.376Z,11.69
2018-03-31T02:18:09.851Z,11.69
2018-03-31T02:18:50.332Z,11.54
2018-03-31T02:19:30.845Z,11.67
2018-03-31T02:20:11.325Z,11.73
2018-03-31T02:20:51.836Z,11.76
2018-03-31T02:21:32.320Z,11.76
2018-03-31T02:22:12.839Z,11.65
2018-03-31T02:22:53.366Z,11.62
2018-03-31T02:23:33.836Z,11.67
2018-03-31T02:24:14.293Z,11.58
2018-03-31T02:24:54.802Z,11.62
2018-03-31T02:25:35.305Z,11.44
2018-03-31T02:26:15.759Z,11.49
2018-03-31T02:26:56.227Z,11.58
2018-03-31T02:27:36.725Z,11.55
2018-03-31T02:28:17.211Z,11.6
2018-03-31T02:28:57.722Z,11.67
2018-03-31T02:29:38.205Z,11.73
2018-03-31T02:30:18.753Z,11.73
2018-03-31T02:30:59.200Z,11.73
2018-03-31T02:31:39.710Z,11.79
2018-03-31T02:32:20.243Z,11.79
2018-03-31T02:33:00.730Z,11.76
2018-03-31T02:33:41.194Z,11.73
2018-03-31T02:34:21.716Z,11.69
2018-03-31T02:35:02.190Z,11.69
2018-03-31T02:35:42.722Z,11.61
2018-03-31T02:36:23.191Z,11.6
2018-03-31T02:37:03.718Z,11.57
2018-03-31T02:37:44.190Z,11.62
2018-03-31T02:38:24.729Z,11.61
2018-03-31T02:39:05.178Z,11.49
2018-03-31T02:39:45.661Z,11.44
2018-03-31T02:40:26.214Z,11.47
2018-03-31T02:41:06.721Z,11.54
2018-03-31T02:41:47.207Z,11.57
2018-03-31T02:42:27.733Z,11.49
2018-03-31T02:43:08.258Z,11.49
2018-03-31T02:43:48.658Z,11.49
2018-03-31T02:44:29.186Z,11.49
2018-03-31T02:45:09.709Z,11.4
2018-03-31T02:45:50.175Z,11.4
2018-03-31T02:46:30.665Z,11.4
2018-03-31T02:47:11.218Z,11.52
2018-03-31T02:47:51.709Z,11.54
2018-03-31T02:48:32.200Z,11.6
2018-03-31T02:49:12.709Z,11.58
2018-03-31T02:49:53.215Z,11.44
2018-03-31T02:50:33.715Z,11.58
2018-03-31T02:51:14.166Z,11.58
2018-03-31T02:51:54.706Z,11.52
2018-03-31T02:52:35.184Z,11.58
2018-03-31T02:53:15.711Z,11.51
2018-03-31T02:53:56.210Z,11.61
2018-03-31T02:54:36.794Z,11.64
2018-03-31T02:55:17.252Z,11.6
2018-03-31T02:55:57.761Z,11.75
2018-03-31T02:56:38.237Z,11.62
2018-03-31T02:57:18.741Z,11.65
2018-03-31T02:57:59.307Z,11.67
2018-03-31T02:58:39.810Z,11.52
2018-03-31T02:59:20.342Z,11.55
2018-03-31T03:00:00.812Z,11.64
2018-03-31T03:00:41.301Z,11.7
2018-03-31T03:01:21.862Z,11.62
2018-03-31T03:02:02.342Z,11.73
2018-03-31T03:02:42.837Z,11.7
2018-03-31T03:03:23.299Z,11.78
2018-03-31T03:04:03.763Z,11.8
2018-03-31T03:04:44.286Z,11.76
2018-03-31T03:05:24.788Z,11.86
2018-03-31T03:06:05.266Z,11.79
2018-03-31T03:06:45.780Z,11.76
2018-03-31T03:07:26.265Z,11.76
2018-03-31T03:08:06.778Z,11.73
2018-03-31T03:08:47.318Z,11.8
2018-03-31T03:09:27.822Z,11.79
2018-03-31T03:10:08.347Z,11.79
2018-03-31T03:10:48.824Z,11.83
2018-03-31T03:11:29.345Z,11.72
2018-03-31T03:12:09.832Z,11.82
2018-03-31T03:12:50.345Z,11.79
2018-03-31T03:13:31.818Z,11.79
2018-03-31T03:14:12.315Z,11.75
2018-03-31T03:14:52.843Z,11.83
2018-03-31T03:15:33.345Z,11.86
2018-03-31T03:16:13.843Z,11.91
2018-03-31T03:16:54.347Z,11.9
2018-03-31T03:17:34.824Z,11.95
2018-03-31T03:18:15.312Z,11.98
2018-03-31T03:18:55.817Z,11.91
2018-03-31T03:19:36.335Z,11.95
2018-03-31T03:20:16.843Z,11.85
2018-03-31T03:20:57.346Z,11.88
2018-03-31T03:21:37.914Z,11.82
2018-03-31T03:22:18.415Z,11.73
2018-03-31T03:22:58.919Z,11.73
2018-03-31T03:23:39.431Z,11.65
2018-03-31T03:24:19.936Z,11.6
2018-03-31T03:25:00.426Z,11.4
2018-03-31T03:25:40.942Z,11.46
2018-03-31T03:26:21.434Z,11.4
2018-03-31T03:27:01.944Z,11.43
2018-03-31T03:27:42.428Z,11.36
2018-03-31T03:28:22.954Z,11.18
2018-03-31T03:30:21.454Z,11.22
2018-03-31T03:31:01.955Z,11.15
2018-03-31T03:31:42.540Z,11.03
2018-03-31T03:32:23.073Z,11.15
2018-03-31T03:34:16.133Z,11.11
2018-03-31T03:34:56.609Z,11.03
2018-03-31T03:35:37.141Z,10.94
2018-03-31T03:36:17.624Z,10.91
2018-03-31T03:36:58.109Z,11.11
2018-03-31T03:37:38.625Z,11
2018-03-31T03:38:19.116Z,11.06
2018-03-31T03:38:59.625Z,11.03
2018-03-31T03:39:40.109Z,11.04
2018-03-31T03:40:20.626Z,11.11
2018-03-31T03:41:01.144Z,11.07
2018-03-31T03:41:41.651Z,11.14
2018-03-31T03:42:22.119Z,11.19
2018-03-31T03:43:02.591Z,11.02
2018-03-31T03:43:43.073Z,11.1
2018-03-31T03:44:23.588Z,11.02
2018-03-31T03:45:04.080Z,11
2018-03-31T03:45:44.557Z,10.89
2018-03-31T03:46:25.057Z,10.96
2018-03-31T03:47:05.547Z,10.92
2018-03-31T03:47:46.054Z,10.96
2018-03-31T03:48:26.531Z,10.94
2018-03-31T03:49:07.012Z,10.82
2018-03-31T03:49:47.526Z,10.78
2018-03-31T03:50:27.984Z,10.78
2018-03-31T03:51:08.482Z,10.73
2018-03-31T03:51:48.957Z,10.6
2018-03-31T03:52:29.477Z,10.67
2018-03-31T03:53:09.966Z,10.61
2018-03-31T03:53:50.454Z,10.76
2018-03-31T03:54:30.950Z,10.68
2018-03-31T03:55:11.456Z,10.71
2018-03-31T03:55:51.960Z,10.59
2018-03-31T03:56:32.477Z,10.68
2018-03-31T03:57:12.969Z,10.53
2018-03-31T03:57:53.503Z,10.61
2018-03-31T03:58:34.047Z,10.59
2018-03-31T03:59:14.513Z,10.61
2018-03-31T03:59:55.015Z,10.63
2018-03-31T04:00:35.547Z,10.68
2018-03-31T04:01:16.059Z,10.55
2018-03-31T04:01:56.557Z,10.66
2018-03-31T04:02:37.049Z,10.64
2018-03-31T04:03:17.511Z,10.52
2018-03-31T04:03:58.043Z,10.55
2018-03-31T04:04:38.577Z,10.59
2018-03-31T04:05:19.103Z,10.44
2018-03-31T04:05:59.658Z,10.48
2018-03-31T04:06:40.163Z,10.34
2018-03-31T04:07:20.641Z,10.36
2018-03-31T04:08:01.156Z,10.53
2018-03-31T04:08:41.636Z,10.63
2018-03-31T04:09:22.125Z,10.63
2018-03-31T04:10:02.616Z,10.66
2018-03-31T04:10:43.162Z,10.76
2018-03-31T04:11:23.661Z,10.79
2018-03-31T04:12:04.152Z,10.82
2018-03-31T04:12:44.655Z,10.81
2018-03-31T04:13:25.159Z,10.81
2018-03-31T04:14:05.659Z,10.79
2018-03-31T04:14:46.165Z,10.82
2018-03-31T04:15:26.825Z,10.86
2018-03-31T04:16:07.311Z,10.82
2018-03-31T04:16:47.808Z,10.84
2018-03-31T04:17:28.321Z,10.73
2018-03-31T04:18:08.825Z,10.74
2018-03-31T04:18:49.339Z,10.67
2018-03-31T04:19:29.834Z,10.85
2018-03-31T04:20:10.320Z,10.89
2018-03-31T04:20:50.846Z,10.86
2018-03-31T04:21:31.368Z,10.84
2018-03-31T04:22:11.874Z,10.82
2018-03-31T04:22:52.318Z,10.92
2018-03-31T04:23:32.840Z,10.86
2018-03-31T04:24:13.301Z,10.94
2018-03-31T04:24:53.802Z,11.04
2018-03-31T04:25:34.299Z,10.99
2018-03-31T04:26:14.806Z,10.94
2018-03-31T04:26:55.366Z,10.79
2018-03-31T04:27:35.833Z,10.88
2018-03-31T04:28:16.336Z,10.84
2018-03-31T04:28:56.850Z,10.94
2018-03-31T04:29:37.483Z,10.96
2018-03-31T04:30:17.911Z,10.96
2018-03-31T04:30:58.422Z,10.85
2018-03-31T04:31:38.900Z,10.91
2018-03-31T04:32:19.431Z,10.81
2018-03-31T04:32:59.945Z,10.81
2018-03-31T04:33:40.439Z,10.81
2018-03-31T04:34:20.948Z,10.67
2018-03-31T04:35:01.482Z,10.7
2018-03-31T04:35:41.977Z,10.71
2018-03-31T04:36:22.486Z,10.61
2018-03-31T04:37:03.099Z,10.71
2018-03-31T04:37:43.510Z,10.78
2018-03-31T04:38:23.995Z,10.78
2018-03-31T04:39:04.498Z,10.73
2018-03-31T04:39:44.998Z,10.67
2018-03-31T04:40:25.486Z,10.64
2018-03-31T04:41:05.987Z,10.76
2018-03-31T04:41:46.492Z,10.71
2018-03-31T04:42:27.027Z,10.67
2018-03-31T04:43:07.504Z,10.68
2018-03-31T04:43:48.017Z,10.63
2018-03-31T04:44:28.436Z,10.68
2018-03-31T04:45:08.949Z,10.85
2018-03-31T04:45:49.433Z,10.71
2018-03-31T04:46:29.933Z,10.86
2018-03-31T04:47:10.470Z,10.71
2018-03-31T04:47:50.947Z,10.79
2018-03-31T04:48:31.428Z,10.79
2018-03-31T04:49:11.964Z,10.92
2018-03-31T04:49:52.508Z,10.85
2018-03-31T04:50:33.012Z,10.86
2018-03-31T04:51:13.533Z,10.99
2018-03-31T04:51:53.986Z,10.81
2018-03-31T04:52:34.483Z,10.76
2018-03-31T04:53:14.974Z,10.78
2018-03-31T04:53:55.433Z,10.61
2018-03-31T04:54:35.926Z,10.61
2018-03-31T04:55:16.418Z,10.68
2018-03-31T04:55:56.919Z,10.76
2018-03-31T04:56:37.414Z,10.74
2018-03-31T04:57:17.880Z,10.7
2018-03-31T04:57:58.361Z,10.73
2018-03-31T04:58:39.053Z,10.73
2018-03-31T04:59:19.540Z,10.63
2018-03-31T05:00:00.064Z,10.71
2018-03-31T05:00:40.560Z,10.53
2018-03-31T05:01:21.065Z,10.52
2018-03-31T05:02:01.554Z,10.63
2018-03-31T05:02:42.058Z,10.44
2018-03-31T05:03:22.557Z,10.53
2018-03-31T05:04:03.095Z,10.51
2018-03-31T05:04:43.572Z,10.45
2018-03-31T05:05:24.073Z,10.4
2018-03-31T05:06:04.577Z,10.36
2018-03-31T05:06:45.066Z,10.26
2018-03-31T05:07:25.586Z,10.29
2018-03-31T05:08:06.127Z,10.3
2018-03-31T05:08:46.588Z,10.4
2018-03-31T05:09:27.089Z,10.34
2018-03-31T05:10:07.610Z,10.34
2018-03-31T05:10:48.121Z,10.34
2018-03-31T05:11:28.590Z,10.27
2018-03-31T05:12:09.049Z,10.38
2018-03-31T05:12:49.567Z,10.34
2018-03-31T05:13:30.026Z,10.33
2018-03-31T05:14:10.601Z,10.27
2018-03-31T05:14:51.041Z,10.17
2018-03-31T05:15:31.542Z,10.17
2018-03-31T05:16:12.076Z,10.18
2018-03-31T05:16:52.546Z,10.2
2018-03-31T05:17:33.048Z,10.14
2018-03-31T05:18:13.601Z,10.18
2018-03-31T05:18:54.032Z,10.09
2018-03-31T05:19:34.496Z,10.12
2018-03-31T05:20:14.998Z,10.09
2018-03-31T05:20:55.441Z,10.07
2018-03-31T05:21:35.941Z,10.05
2018-03-31T05:22:16.535Z,9.99
2018-03-31T05:22:57.006Z,10.04
2018-03-31T05:23:37.523Z,10.15
2018-03-31T05:24:18.006Z,10.05
2018-03-31T05:24:58.547Z,10.14
2018-03-31T05:25:39.075Z,10.22
2018-03-31T05:26:19.619Z,10.29
2018-03-31T05:27:00.087Z,10.26
2018-03-31T05:27:40.586Z,10.14
2018-03-31T05:28:21.132Z,10.08
2018-03-31T05:29:01.596Z,10.07
2018-03-31T05:29:42.095Z,10.07
2018-03-31T05:30:22.634Z,10.15
2018-03-31T05:31:03.108Z,10.26
2018-03-31T05:31:43.607Z,10.32
2018-03-31T05:32:24.138Z,10.15
2018-03-31T05:33:04.583Z,10.18
2018-03-31T05:33:45.077Z,10.15
2018-03-31T05:34:25.564Z,10.15
2018-03-31T05:35:06.037Z,10.15
2018-03-31T05:35:46.524Z,10.29
2018-03-31T05:36:27.044Z,10.27
2018-03-31T05:37:07.561Z,10.22
2018-03-31T05:37:48.037Z,10.33
2018-03-31T05:38:28.555Z,10.34
2018-03-31T05:39:09.042Z,10.42
2018-03-31T05:39:49.545Z,10.4
2018-03-31T05:40:30.040Z,10.32
2018-03-31T05:41:10.531Z,10.33
2018-03-31T05:41:51.026Z,10.41
2018-03-31T05:42:31.548Z,10.32
2018-03-31T05:43:12.032Z,10.44
2018-03-31T05:43:54.596Z,10.42
2018-03-31T05:44:34.973Z,10.45
2018-03-31T05:45:15.461Z,10.45
2018-03-31T05:45:55.968Z,10.38
2018-03-31T05:46:36.457Z,10.45
2018-03-31T05:47:16.977Z,10.55
2018-03-31T05:47:57.477Z,10.53
2018-03-31T05:48:37.971Z,10.53
2018-03-31T05:49:18.514Z,10.64
2018-03-31T05:49:59.019Z,10.6
2018-03-31T05:50:39.513Z,10.52
2018-03-31T05:51:21.635Z,10.56
2018-03-31T05:52:02.153Z,10.63
2018-03-31T05:52:42.663Z,10.59
2018-03-31T05:53:23.154Z,10.63
2018-03-31T05:54:03.668Z,10.63
2018-03-31T05:54:44.152Z,10.67
2018-03-31T05:55:24.639Z,10.82
2018-03-31T05:56:05.091Z,10.82
2018-03-31T05:56:45.600Z,10.7
2018-03-31T05:57:26.182Z,10.73
2018-03-31T05:58:06.649Z,10.68
2018-03-31T05:58:47.151Z,10.7
2018-03-31T05:59:27.634Z,10.71
2018-03-31T06:00:08.106Z,10.68
2018-03-31T06:00:48.601Z,10.82
2018-03-31T06:01:29.104Z,10.81
2018-03-31T06:02:09.590Z,10.82
2018-03-31T06:02:50.072Z,10.81
2018-03-31T06:03:30.577Z,10.81
2018-03-31T06:04:10.998Z,10.74
2018-03-31T06:04:51.510Z,10.84
2018-03-31T06:05:32.005Z,10.88
2018-03-31T06:06:12.492Z,10.88
2018-03-31T06:06:53.059Z,10.79
2018-03-31T06:07:33.605Z,10.91
2018-03-31T06:08:14.133Z,10.97
2018-03-31T06:08:54.583Z,10.86
2018-03-31T06:09:35.130Z,10.96
2018-03-31T06:10:15.663Z,11.09
2018-03-31T06:10:56.159Z,11.14
2018-03-31T06:11:36.623Z,11
2018-03-31T06:12:17.074Z,11.06
2018-03-31T06:12:57.565Z,11.04
2018-03-31T06:13:38.038Z,10.96
2018-03-31T06:14:18.514Z,10.86
2018-03-31T06:14:59.006Z,10.88
2018-03-31T06:15:39.481Z,10.86
2018-03-31T06:16:19.985Z,10.84
2018-03-31T06:17:00.472Z,10.78
2018-03-31T06:17:40.972Z,10.78
2018-03-31T06:18:21.518Z,10.86
2018-03-31T06:19:02.002Z,10.92
2018-03-31T06:19:42.500Z,10.96
2018-03-31T06:20:22.962Z,10.94
2018-03-31T06:21:03.479Z,11.09
2018-03-31T06:21:43.975Z,11.09
2018-03-31T06:22:24.433Z,11.11
2018-03-31T06:23:04.940Z,11.11
2018-03-31T06:23:45.412Z,11.15
2018-03-31T06:24:25.889Z,11.17
2018-03-31T06:25:06.393Z,11.14
2018-03-31T06:25:46.876Z,11.09
2018-03-31T06:26:27.527Z,11.09
2018-03-31T06:27:08.024Z,11.18
2018-03-31T06:27:48.508Z,11.28
2018-03-31T06:28:29.032Z,11.36
2018-03-31T06:29:09.525Z,11.35
2018-03-31T06:29:50.046Z,11.42
2018-03-31T06:30:30.555Z,11.57
2018-03-31T06:31:11.055Z,11.49
2018-03-31T06:31:51.539Z,11.42
2018-03-31T06:32:32.056Z,11.49
2018-03-31T06:33:12.548Z,11.47
2018-03-31T06:33:53.042Z,11.51
2018-03-31T06:34:33.554Z,11.54
2018-03-31T06:35:14.036Z,11.55
2018-03-31T06:35:54.500Z,11.42
2018-03-31T06:36:34.996Z,11.39
2018-03-31T06:37:15.552Z,11.55
2018-03-31T06:37:56.035Z,11.57
2018-03-31T06:38:36.539Z,11.61
2018-03-31T06:39:17.025Z,11.76
2018-03-31T06:39:57.516Z,11.57
2018-03-31T06:40:37.996Z,11.46
2018-03-31T06:41:18.500Z,11.51
2018-03-31T06:41:58.996Z,11.44
2018-03-31T06:42:39.479Z,11.51
2018-03-31T06:43:19.989Z,11.52
2018-03-31T06:44:00.489Z,11.6
2018-03-31T06:44:41.057Z,11.54
2018-03-31T06:45:21.513Z,11.49
2018-03-31T06:46:02.029Z,11.67
2018-03-31T06:46:42.563Z,11.7
2018-03-31T06:47:23.066Z,11.52
2018-03-31T06:48:03.579Z,11.57
2018-03-31T06:48:44.038Z,11.57
2018-03-31T06:49:24.586Z,11.62
2018-03-31T06:50:05.034Z,11.61
2018-03-31T06:50:45.555Z,11.49
2018-03-31T06:51:26.020Z,11.52
2018-03-31T06:52:06.529Z,11.47
2018-03-31T06:52:47.053Z,11.67
2018-03-31T06:53:27.520Z,11.64
2018-03-31T06:54:08.020Z,11.7
2018-03-31T06:54:48.548Z,11.83
2018-03-31T06:55:29.051Z,11.78
2018-03-31T06:56:09.485Z,11.9
2018-03-31T06:56:49.997Z,11.91
2018-03-31T06:57:30.466Z,11.79
2018-03-31T06:58:11.017Z,11.75
2018-03-31T06:58:51.413Z,11.7
2018-03-31T06:59:31.927Z,11.65
2018-03-31T07:00:12.392Z,11.62
2018-03-31T07:00:52.986Z,11.62
2018-03-31T07:01:33.483Z,11.67
2018-03-31T07:02:14.039Z,11.72
2018-03-31T07:02:54.498Z,11.69
2018-03-31T07:03:34.959Z,11.85
2018-03-31T07:04:15.479Z,11.9
2018-03-31T07:04:55.995Z,11.9
2018-03-31T07:05:36.609Z,11.98
2018-03-31T07:06:17.073Z,12.05
2018-03-31T07:06:57.566Z,12.13
2018-03-31T07:07:38.129Z,12.05
2018-03-31T07:08:18.540Z,12.28
2018-03-31T07:08:59.084Z,12.34
2018-03-31T07:09:39.584Z,12.34
2018-03-31T07:10:20.163Z,12.42
2018-03-31T07:11:00.639Z,12.53
2018-03-31T07:11:41.122Z,12.68
2018-03-31T07:12:21.695Z,12.68
2018-03-31T07:13:02.126Z,12.79
2018-03-31T07:13:42.670Z,12.92
2018-03-31T07:14:23.098Z,12.93
2018-03-31T07:15:03.593Z,12.93
2018-03-31T07:15:44.079Z,12.93
2018-03-31T07:16:24.541Z,12.93
2018-03-31T07:17:05.060Z,12.96
2018-03-31T07:17:45.527Z,12.93
2018-03-31T07:18:26.036Z,12.97
2018-03-31T07:19:06.550Z,13.07
2018-03-31T07:19:47.043Z,13.2
2018-03-31T07:20:27.554Z,13.2
2018-03-31T07:21:08.021Z,13.08
2018-03-31T07:21:48.532Z,13.04
2018-03-31T07:22:29.034Z,13.08
2018-03-31T07:23:09.500Z,13.22
2018-03-31T07:23:50.072Z,13.2
2018-03-31T07:24:30.529Z,13.19
2018-03-31T07:25:11.003Z,13.29
2018-03-31T07:25:51.494Z,13.32
2018-03-31T07:26:32.012Z,13.42
2018-03-31T07:27:12.506Z,13.57
2018-03-31T07:27:53.006Z,13.55
2018-03-31T07:28:33.507Z,13.54
2018-03-31T07:29:13.972Z,13.63
2018-03-31T07:29:54.431Z,13.54
2018-03-31T07:30:34.924Z,13.52
2018-03-31T07:31:15.789Z,13.62
2018-03-31T07:31:56.198Z,13.54
2018-03-31T07:32:36.678Z,13.62
2018-03-31T07:33:17.146Z,13.6
2018-03-31T07:33:57.657Z,13.69
2018-03-31T07:34:38.574Z,13.89
2018-03-31T07:35:18.955Z,14.02
2018-03-31T07:35:59.426Z,14.07
2018-03-31T07:36:39.921Z,14.07
2018-03-31T07:37:20.445Z,14.03
2018-03-31T07:38:00.955Z,14.07
2018-03-31T07:38:41.421Z,14.14
2018-03-31T07:39:21.948Z,14.17
2018-03-31T07:40:02.460Z,14.02
2018-03-31T07:40:43.126Z,13.92
2018-03-31T07:41:23.577Z,13.95
2018-03-31T07:42:04.076Z,14
2018-03-31T07:42:44.638Z,13.82
2018-03-31T07:43:25.100Z,13.85
2018-03-31T07:44:05.578Z,13.71
2018-03-31T07:44:46.094Z,13.69
2018-03-31T07:45:26.624Z,13.81
2018-03-31T07:46:07.095Z,13.77
2018-03-31T07:46:47.577Z,13.88
2018-03-31T07:47:28.126Z,13.88
2018-03-31T07:48:08.596Z,13.82
2018-03-31T07:48:49.102Z,13.67
2018-03-31T07:49:29.694Z,13.71
2018-03-31T07:50:10.183Z,13.82
2018-03-31T07:50:50.679Z,13.78
2018-03-31T07:51:31.184Z,13.73
2018-03-31T07:52:11.724Z,13.54
2018-03-31T07:52:52.348Z,13.66
2018-03-31T07:53:32.680Z,13.69
2018-03-31T07:54:13.200Z,13.87
2018-03-31T07:54:53.990Z,13.85
2018-03-31T07:55:34.476Z,13.91
2018-03-31T07:56:14.939Z,13.78
2018-03-31T07:56:55.477Z,13.88
2018-03-31T07:57:35.985Z,13.84
2018-03-31T07:58:16.647Z,13.89
2018-03-31T07:58:57.468Z,13.82
2018-03-31T07:59:37.941Z,13.95
2018-03-31T08:00:18.527Z,13.97
2018-03-31T08:00:59.040Z,13.96
2018-03-31T08:01:39.648Z,14.02
2018-03-31T08:02:20.133Z,14.22
2018-03-31T08:03:00.635Z,14.15
2018-03-31T08:03:41.296Z,14.14
2018-03-31T08:04:21.660Z,14.18
2018-03-31T08:05:02.169Z,14.15
2018-03-31T08:05:42.644Z,14.14
2018-03-31T08:06:23.166Z,14.2
2018-03-31T08:07:03.824Z,14.15
2018-03-31T08:07:44.336Z,14.06
2018-03-31T08:08:24.872Z,14.06
2018-03-31T08:09:05.345Z,14.09
2018-03-31T08:09:45.856Z,14.04
2018-03-31T08:10:26.331Z,14.14
2018-03-31T08:11:06.839Z,14.1
2018-03-31T08:11:47.345Z,14.12
2018-03-31T08:12:27.888Z,14.1
2018-03-31T08:13:08.390Z,14.09
2018-03-31T08:13:48.857Z,14.12
2018-03-31T08:14:29.388Z,14.07
2018-03-31T08:15:09.908Z,14.04
2018-03-31T08:15:50.385Z,14.17
2018-03-31T08:16:33.793Z,14.15
2018-03-31T08:17:13.383Z,14.04
2018-03-31T08:17:53.871Z,14.06
2018-03-31T08:18:34.375Z,14.02
2018-03-31T08:19:15.003Z,14.03
2018-03-31T08:19:55.489Z,14.04
2018-03-31T08:20:36.003Z,14.1
2018-03-31T08:21:16.582Z,14.12
2018-03-31T08:21:57.147Z,14.12
2018-03-31T08:22:37.624Z,14.25
2018-03-31T08:23:18.112Z,14.18
2018-03-31T08:23:58.728Z,14.2
2018-03-31T08:24:39.473Z,14.27
2018-03-31T08:25:19.926Z,14.27
2018-03-31T08:26:00.560Z,14.18
2018-03-31T08:26:41.429Z,14.28
2018-03-31T08:27:21.866Z,14.27
2018-03-31T08:28:02.392Z,14.28
2018-03-31T08:28:42.769Z,14.33
2018-03-31T08:29:23.408Z,14.25
2018-03-31T08:30:04.679Z,14.39
2018-03-31T08:30:45.179Z,14.43
2018-03-31T08:31:25.797Z,14.39
2018-03-31T08:32:06.322Z,14.37
2018-03-31T08:32:47.095Z,14.28
2018-03-31T08:33:27.614Z,14.18
2018-03-31T08:34:08.126Z,14.25
2018-03-31T08:34:48.765Z,14.33
2018-03-31T08:35:29.264Z,14.18
2018-03-31T08:36:09.842Z,14.22
2018-03-31T08:36:50.491Z,14.35
2018-03-31T08:37:31.146Z,14.36
2018-03-31T08:38:11.899Z,14.22
2018-03-31T08:38:52.214Z,14.35
2018-03-31T08:39:32.712Z,14.35
2018-03-31T08:40:13.201Z,14.35
2018-03-31T08:40:53.693Z,14.35
2018-03-31T08:41:34.392Z,14.43
2018-03-31T08:42:14.796Z,14.47
2018-03-31T08:42:55.211Z,14.43
2018-03-31T08:43:35.749Z,14.36
2018-03-31T08:44:16.316Z,14.54
2018-03-31T08:44:56.908Z,14.5
2018-03-31T08:45:37.645Z,14.52
2018-03-31T08:46:18.296Z,14.5